Latest Weather Observations for Broome Port

IDW60801

Issued at 8:35 pm WST Thursday 28 August 2014 (issued every 30 minutes, with the page automatically refreshed every 10 minutes)

About weather observations | Map of weather stations | Latest weather observations for WA | Other Formats
Station Details ID: 003102 Name: BROOME NTC AWS Lat: -18.00 Lon: 122.22 Height: 0.0 m
Data from the previous 72 hours. | See also: Recent months for locations in Western Australia
Date/Time
WST
Temp
°C
App
Temp
°C
Dew
Point
Rel
Hum
%
Delta-T
°C
Wind Press
QNH
hPa
Press
MSL
hPa
Rain
since 9 am
mm
Dir
 
Spd
km/h
Gust
km/h
Spd
kts
Gust
kts
28/08:30pm 22.4 - - - - NNW 7 9 4 5 1015.3 1015.3 -
28/08:00pm 22.4 - - - - NNW 13 15 7 8 1015.1 1015.1 -
28/07:30pm 22.1 - - - - N 15 20 8 11 1014.9 1014.9 -
28/07:00pm 22.4 - - - - N 20 24 11 13 1014.1 1014.1 -
28/06:30pm 23.0 - - - - N 22 26 12 14 1013.5 1013.5 -
28/06:00pm 22.8 - - - - N 19 24 10 13 1013.2 1013.2 -
28/05:30pm 23.2 - - - - N 26 30 14 16 1012.9 1012.9 -
28/05:00pm 24.1 - - - - NNW 24 28 13 15 1012.8 1012.8 -
28/04:30pm 24.8 - - - - NNW 24 28 13 15 1012.6 1012.6 -
28/04:00pm 25.2 - - - - NNW 22 28 12 15 1012.3 1012.3 -
28/03:30pm 25.7 - - - - NNW 24 32 13 17 1012.3 1012.3 -
28/03:00pm 26.2 - - - - NNW 24 28 13 15 1012.4 1012.4 -
28/02:30pm 26.4 - - - - NNW 24 28 13 15 1012.6 1012.6 -
28/02:00pm 26.8 - - - - NNW 24 28 13 15 1012.8 1012.8 -
28/01:30pm 28.1 - - - - NW 20 30 11 16 1012.9 1012.9 -
28/01:00pm 28.9 - - - - ESE 22 28 12 15 1013.1 1013.1 -
28/12:30pm 28.7 - - - - ESE 22 26 12 14 1013.4 1013.4 -
28/12:00pm 29.1 - - - - ESE 20 28 11 15 1013.9 1013.9 -
28/11:30am 27.4 - - - - E 15 19 8 10 1014.5 1014.5 -
28/11:00am 27.4 - - - - ESE 22 26 12 14 1015.0 1015.0 -
28/10:30am 25.7 - - - - ESE 20 28 11 15 1015.4 1015.4 -
28/10:00am 24.3 - - - - ESE 20 26 11 14 1015.7 1015.7 -
28/09:30am 23.2 - - - - ESE 22 26 12 14 1015.9 1015.9 -
28/09:00am 21.8 - - - - E 22 26 12 14 1015.9 1015.9 -
28/08:30am 20.0 - - - - ESE 15 20 8 11 1015.9 1015.9 -
28/08:00am 18.6 - - - - ESE 17 20 9 11 1015.7 1015.7 -
28/07:30am 18.8 - - - - ESE 17 19 9 10 1015.3 1015.3 -
28/07:00am 20.2 - - - - ESE 22 26 12 14 1015.2 1015.2 -
28/06:30am 20.7 - - - - SE 19 22 10 12 1014.8 1014.8 -
28/06:00am 20.5 - - - - ESE 20 24 11 13 1014.6 1014.6 -
28/05:30am 20.6 - - - - SE 17 20 9 11 1014.5 1014.5 -
28/05:00am 20.3 - - - - SE 17 22 9 12 1014.1 1014.1 -
28/04:30am 20.8 - - - - SE 11 15 6 8 1013.9 1013.9 -
28/04:00am 20.6 - - - - SSE 7 13 4 7 1014.0 1014.0 -
28/03:30am 21.0 - - - - SE 11 17 6 9 1014.0 1014.0 -
28/03:00am 21.1 - - - - SSE 9 13 5 7 1013.8 1013.8 -
28/02:30am 21.8 - - - - SSE 7 11 4 6 1013.7 1013.7 -
28/02:00am 21.4 - - - - ESE 6 9 3 5 1013.7 1013.7 -
28/01:30am 21.3 - - - - S 9 15 5 8 1013.9 1013.9 -
28/01:00am 21.4 - - - - S 13 15 7 8 1014.0 1014.0 -
28/12:30am 21.4 - - - - SSW 9 11 5 6 1014.3 1014.3 -
28/12:00am 21.9 - - - - SW 11 15 6 8 1014.6 1014.6 -
 
Date/Time
WST
Temp
°C
App
Temp
°C
Dew
Point
Rel
Hum
%
Delta-T
°C
Wind Press
QNH
hPa
Press
MSL
hPa
Rain
since 9 am
mm
Dir
 
Spd
km/h
Gust
km/h
Spd
kts
Gust
kts
27/11:30pm 21.9 - - - - SSW 9 11 5 6 1014.8 1014.8 -
27/11:00pm 22.4 - - - - SSW 13 13 7 7 1014.8 1014.8 -
27/10:30pm 22.3 - - - - SSW 11 15 6 8 1015.0 1015.0 -
27/10:00pm 21.4 - - - - SSW 11 13 6 7 1015.0 1015.0 -
27/09:30pm 22.4 - - - - SW 13 19 7 10 1015.3 1015.3 -
27/09:00pm 21.8 - - - - SW 11 17 6 9 1015.2 1015.2 -
27/08:30pm 22.6 - - - - WSW 17 19 9 10 1014.9 1014.9 -
27/08:00pm 23.0 - - - - W 11 13 6 7 1014.7 1014.7 -
27/07:30pm 22.5 - - - - WNW 13 15 7 8 1014.3 1014.3 -
27/07:00pm 22.3 - - - - W 9 13 5 7 1013.9 1013.9 -
27/06:30pm 23.9 - - - - NNW 22 28 12 15 1013.3 1013.3 -
27/06:00pm 23.9 - - - - NNW 26 28 14 15 1012.8 1012.8 -
27/05:30pm 24.7 - - - - NNW 24 30 13 16 1012.6 1012.6 -
27/05:00pm 25.1 - - - - NNW 24 30 13 16 1012.6 1012.6 -
27/04:30pm 25.6 - - - - NNW 22 28 12 15 1012.7 1012.7 -
27/04:00pm 25.9 - - - - NW 28 32 15 17 1012.5 1012.5 -
27/03:30pm 27.9 - - - - N 20 22 11 12 1012.4 1012.4 -
27/03:00pm 28.6 - - - - E 15 24 8 13 1012.3 1012.3 -
27/02:30pm 29.4 - - - - SE 19 28 10 15 1012.1 1012.1 -
27/02:00pm 28.4 - - - - SE 9 19 5 10 1012.5 1012.5 -
27/01:30pm 28.1 - - - - SE 9 20 5 11 1012.9 1012.9 -
27/01:00pm 27.7 - - - - SE 11 28 6 15 1013.3 1013.3 -
27/12:30pm 28.4 - - - - ESE 15 26 8 14 1013.7 1013.7 -
27/12:00pm 27.1 - - - - ESE 15 22 8 12 1014.0 1014.0 -
27/11:30am 26.7 - - - - ESE 17 26 9 14 1014.5 1014.5 -
27/11:00am 25.3 - - - - ESE 11 20 6 11 1015.1 1015.1 -
27/10:30am 24.2 - - - - ESE 17 22 9 12 1015.5 1015.5 -
27/10:00am 23.7 - - - - ESE 22 30 12 16 1015.8 1015.8 -
27/09:30am 22.5 - - - - ESE 22 28 12 15 1016.1 1016.1 -
27/09:00am 21.8 - - - - ESE 24 30 13 16 1016.3 1016.3 -
27/08:30am 21.6 - - - - E 30 35 16 19 1016.2 1016.2 -
27/08:00am 20.1 - - - - E 20 24 11 13 1016.1 1016.1 -
27/07:30am 19.5 - - - - E 17 20 9 11 1015.8 1015.8 -
27/07:00am 18.5 - - - - E 17 20 9 11 1015.5 1015.5 -
27/06:30am 18.0 - - - - E 15 19 8 10 1015.1 1015.1 -
27/06:00am 18.6 - - - - E 13 17 7 9 1014.7 1014.7 -
27/05:30am 19.4 - - - - ESE 13 13 7 7 1014.3 1014.3 -
27/05:00am 19.4 - - - - ESE 11 13 6 7 1013.9 1013.9 -
27/04:30am 19.5 - - - - ESE 11 15 6 8 1013.7 1013.7 -
27/04:00am 19.9 - - - - ESE 17 20 9 11 1013.6 1013.6 -
27/03:30am 20.5 - - - - ESE 15 19 8 10 1013.6 1013.6 -
27/03:00am 21.6 - - - - SE 15 22 8 12 1013.7 1013.7 -
27/02:30am 21.0 - - - - SE 11 13 6 7 1013.7 1013.7 -
27/02:00am 19.9 - - - - ESE 6 11 3 6 1013.9 1013.9 -
27/01:30am 19.6 - - - - E 6 7 3 4 1014.2 1014.2 -
27/01:00am 20.3 - - - - ESE 2 4 1 2 1014.2 1014.2 -
27/12:30am 20.6 - - - - SSE 2 4 1 2 1014.5 1014.5 -
27/12:00am 21.4 - - - - SSW 2 4 1 2 1014.6 1014.6 -
 
Date/Time
WST
Temp
°C
App
Temp
°C
Dew
Point
Rel
Hum
%
Delta-T
°C
Wind Press
QNH
hPa
Press
MSL
hPa
Rain
since 9 am
mm
Dir
 
Spd
km/h
Gust
km/h
Spd
kts
Gust
kts
26/11:30pm 21.6 - - - - W 2 4 1 2 1014.6 1014.6 -
26/11:00pm 21.3 - - - - WNW 4 6 2 3 1014.7 1014.7 -
26/10:30pm 22.1 - - - - W 4 7 2 4 1014.8 1014.8 -
26/10:00pm 22.6 - - - - WNW 6 9 3 5 1014.8 1014.8 -
26/09:30pm 23.0 - - - - W 9 13 5 7 1014.8 1014.8 -
26/09:00pm 23.5 - - - - W 6 9 3 5 1014.9 1014.9 -
26/08:30pm 24.2 - - - - WNW 6 11 3 6 1014.8 1014.8 -
26/08:00pm 24.3 - - - - NNW 6 9 3 5 1014.7 1014.7 -
26/07:30pm 24.0 - - - - WNW 7 9 4 5 1014.4 1014.4 -
26/07:00pm 24.1 - - - - NW 13 15 7 8 1014.0 1014.0 -
26/06:30pm 25.1 - - - - WNW 15 17 8 9 1013.5 1013.5 -
26/06:00pm 25.5 - - - - WNW 17 20 9 11 1013.0 1013.0 -
26/05:30pm 26.4 - - - - WNW 19 26 10 14 1012.6 1012.6 -
26/05:00pm 27.1 - - - - WNW 11 19 6 10 1012.5 1012.5 -
26/04:30pm 29.4 - - - - SSW 17 20 9 11 1012.1 1012.1 -
26/04:00pm 30.2 - - - - SSW 11 13 6 7 1012.1 1012.1 -
26/03:30pm 29.8 - - - - SSW 15 17 8 9 1012.2 1012.2 -
26/03:00pm 29.9 - - - - SSW 13 17 7 9 1012.3 1012.3 -
26/02:30pm 30.0 - - - - SSW 11 15 6 8 1012.6 1012.6 -
26/02:00pm 29.9 - - - - S 11 13 6 7 1013.0 1013.0 -
26/01:30pm 29.8 - - - - SSE 7 13 4 7 1013.4 1013.4 -
26/01:00pm 28.8 - - - - SE 7 13 4 7 1013.9 1013.9 -
26/12:30pm 28.6 - - - - ESE 19 24 10 13 1014.4 1014.4 -
26/12:00pm 27.0 - - - - ESE 13 22 7 12 1015.0 1015.0 -
26/11:30am 26.7 - - - - ESE 15 28 8 15 1015.5 1015.5 -
26/11:00am 25.9 - - - - ESE 19 32 10 17 1016.0 1016.0 -
26/10:30am 25.4 - - - - ESE 9 20 5 11 1016.4 1016.4 -
26/10:00am 24.8 - - - - ESE 17 33 9 18 1016.8 1016.8 -
26/09:30am 23.8 - - - - ESE 15 26 8 14 1017.1 1017.1 -
26/09:00am 22.9 - - - - ESE 26 33 14 18 1017.3 1017.3 -
26/08:30am 21.5 - - - - ESE 22 28 12 15 1017.3 1017.3 -
26/08:00am 20.5 - - - - E 17 20 9 11 1017.2 1017.2 -
26/07:30am 19.6 - - - - E 15 17 8 9 1017.1 1017.1 -
26/07:00am 19.8 - - - - ESE 17 19 9 10 1016.7 1016.7 -
26/06:30am 20.0 - - - - ESE 15 19 8 10 1016.5 1016.5 -
26/06:00am 19.7 - - - - ESE 13 15 7 8 1016.3 1016.3 -
26/05:30am 19.8 - - - - ESE 11 15 6 8 1015.8 1015.8 -
26/05:00am 19.7 - - - - E 9 13 5 7 1015.4 1015.4 -
26/04:30am 19.6 - - - - E 11 15 6 8 1015.2 1015.2 -
26/04:00am 19.5 - - - - E 13 17 7 9 1015.2 1015.2 -
26/03:30am 20.9 - - - - ESE 20 26 11 14 1015.0 1015.0 -
26/03:00am 21.4 - - - - SE 22 30 12 16 1015.0 1015.0 -
26/02:30am 21.4 - - - - ESE 22 26 12 14 1015.0 1015.0 -
26/02:00am 21.3 - - - - ESE 20 24 11 13 1015.1 1015.1 -
26/01:30am 21.5 - - - - ESE 19 28 10 15 1015.3 1015.3 -
26/01:00am 21.7 - - - - SE 19 22 10 12 1015.6 1015.6 -
26/12:30am 21.5 - - - - ESE 15 19 8 10 1015.8 1015.8 -
26/12:00am 21.9 - - - - SSE 24 30 13 16 1015.8 1015.8 -
 
Date/Time
WST
Temp
°C
App
Temp
°C
Dew
Point
Rel
Hum
%
Delta-T
°C
Wind Press
QNH
hPa
Press
MSL
hPa
Rain
since 9 am
mm
Dir
 
Spd
km/h
Gust
km/h
Spd
kts
Gust
kts
25/11:30pm 22.5 - - - - SSE 24 30 13 16 1015.9 1015.9 -
25/11:00pm 22.8 - - - - SSE 28 32 15 17 1015.9 1015.9 -
25/10:30pm 22.8 - - - - SSE 28 33 15 18 1015.8 1015.8 -
25/10:00pm 23.9 - - - - SSE 30 33 16 18 1015.8 1015.8 -
25/09:30pm 24.6 - - - - SSE 24 26 13 14 1015.6 1015.6 -
25/09:00pm 24.2 - - - - SSE 22 24 12 13 1015.5 1015.5 -

Other Formats:

Comma delimited format used in spreadsheet applications
http://www.bom.gov.au/fwo/IDW60801/IDW60801.95202.axf

JavaScript Object Notation format (JSON) in row-major order
http://www.bom.gov.au/fwo/IDW60801/IDW60801.95202.json